Leupp Corner, Arizona
Current Conditions -  °F | °C
As of 8:56 PM on Sunday 19 Oct 2014 (Local Time) from KINW Reporting Station
Scattered Clouds Scattered Clouds  
Wind Chill: 57°   Ceiling: Unl
Heat Index: 57°   Visibility: 10mi
Dew Point: 43°   Wind: 6mph
Humidity: 59%   Direction: 130°SE
Pressure: 30.09"   Gusts: NA
Location:  35.1934°N, 110.361°W
Report Text: KINW 200356Z AUTO 13005KT 10SM SCT095 14/06 A3009 RMK AO2 SLP141 T01390061
Loading
Personal Weather Stations






























Interactive Weather Map
Tropical Storm Tracking
New forecast layout! Learn more

10-Day Weather Forecast

Advertisements
Track Severe Weather on mobile